Portada
METAR-TAF:

METAR-TAF

Aeroports :

Plataforma petroliera

A12-cpp, Països Baixos

latitud: 55-23-57N, longitud: 3-48-37E, altitud: 33 m

Observació

L'informe es va fer fa 10 minuts, a les 14:25 UTC
Vent 25 kt del Sud-Oest
Temperatura 8°C
Humitat 76%
Pressió 998 hPa
Visibilitat 10 km o més

METAR: EHAK 111425Z AUTO 22025KT 9999 SCT016/// BKN020/// BKN026/// 08/04 Q0998

Hora: 15:35 (14:35 UTC)


TAF: manca

Observacions i pronòstics meteorològics de més de 4000 aeroports (METAR i TAF).

Les estacions disponibles són els punts grocs i vermells al mapa.

Posi el ratolí al punt desitjat per veure el nom de l'estació.

Feu clic per veure les observacions i els pronòstics meteorològics.

Per canviar el mapa: feu clic els botons verds amb una creu de color negre per apropar; al botó verd amb un guió per allunyar la imatge; o en les fletxes verdes per a mapes adjacents.


METAR-TAF: